Ana Sayfa
METAR-TAF:

METAR-TAF

Havaalanları :

Kunming, Çin

Enlem: 25-01N, Boylam: 102-41E, yükseklik: 1892 m

Güncel hava durumu gözlemi

Rapor saat 05:00 UTC de 30 dakika önce yapıldı.
Rüzgar güneybatıdan 14 kt
Sıcaklık 17°C
Nem 82%
Basınç 1028 hPa
Görüş mesafesi 10 km veya daha fazla
2000 ft yükseklikte parçalı çok bulutlu
4000 ft yükseklikte parçalı çok bulutlu

METAR: ZPPP 160500Z 22007MPS 9999 BKN020 BKN040 17/14 Q1028 NOSIG

Saat: 13:30 (05:30 UTC)

Tahmin

Rapor saat 19:04 UTC de 10 saat ve 26 dakika önce yapıldı.
Ayın 16'si saat 00 UTC'den ayın 16'si saat 24 UTC'ye kadar geçerli Tahmin
Rüzgar güneybatıdan 8 kt
Görüş mesafesi: 6000 m
2000 ft yükseklikte parçalı bulutlu
3300 ft yükseklikte parçalı çok bulutlu
Dönüşüyor
ayın 16'si saat 09 UTC'den ayın 16'si saat 10 UTC'ye kadar
Rüzgar kuzeydoğudan 10 kt

TAF: ZPPP 151904Z 1600/1624 22004MPS 6000 SCT020 BKN033 TX18/1608Z TN12/1623Z BECMG 1609/1610 04005MPS

4.000'den fazla havaalanı için hava durumu gözlemleri ve tahminleri (METAR ve TAF raporları).

Kullanılabilir istasyonlar harita üzerinde sarı ve kırmızı noktalarla gösterilir.

İstasyonun adını görmek için fareyi noktanın üzerinde gezdirin.

Sonrasında hava gözlem ve tahminlerini görmek için tıklayın.

Haritayı değiştirmek için: yaklaştırmak için siyah artı işaretli yeşil düğmeye ve uzaklaştırmak için de eksi işaretli düğmeye hızla tıklayın; bitişik haritalar için yeşil okları kullanın.


METAR-TAF: